Time;durP1;ratioP1;P1;durP2;ratioP2;P2;SDS_P1;SDS_P2;PMS_P1;PMS_P2;Temp;Humidity;BMP_temperature;BMP_pressure;BME280_temperature;BME280_humidity;BME280_pressure;Samples;Min_cycle;Max_cycle;Signal;HPM_P1;HPM_P2
2022/05/10 00:00:27;;;;;;;10.52;5.10;;;;;;;12.27;83.84;101922.19;5022746;28;20029;-75
2022/05/10 00:02:55;;;;;;;9.00;4.05;;;;;;;12.20;81.48;101900.72;5015468;28;20121;-75
2022/05/10 00:05:28;;;;;;;10.57;4.10;;;;;;;12.45;77.67;101920.56;5017085;28;20033;-74
2022/05/10 00:07:55;;;;;;;12.07;4.72;;;;;;;12.42;78.38;101901.47;5012500;28;20053;-74
2022/05/10 00:10:21;;;;;;;10.02;4.80;;;;;;;12.58;77.79;101924.78;5019799;28;20054;-74
2022/05/10 00:12:47;;;;;;;14.98;4.63;;;;;;;12.57;77.03;101910.69;5023567;28;20026;-75
2022/05/10 00:15:12;;;;;;;6.80;4.28;;;;;;;12.58;76.45;101908.88;5011630;28;20026;-74
2022/05/10 00:17:40;;;;;;;6.95;4.78;;;;;;;12.57;77.19;101918.66;5025543;28;20112;-74
2022/05/10 00:20:10;;;;;;;9.95;4.65;;;;;;;12.52;77.00;101910.25;5021096;28;20031;-75
2022/05/10 00:22:36;;;;;;;11.18;4.75;;;;;;;12.50;77.04;101896.34;5016948;28;20068;-74
2022/05/10 00:25:02;;;;;;;6.43;4.10;;;;;;;12.56;75.78;101906.38;5025627;28;20069;-75
2022/05/10 00:27:28;;;;;;;7.45;4.30;;;;;;;12.58;75.14;101912.34;5027526;28;20079;-74
2022/05/10 00:29:53;;;;;;;12.32;5.43;;;;;;;12.54;76.42;101901.22;5022561;28;20477;-74
2022/05/10 00:32:19;;;;;;;11.55;5.95;;;;;;;12.44;79.07;101896.88;5024197;28;20049;-74
2022/05/10 00:34:44;;;;;;;7.35;4.80;;;;;;;12.43;77.78;101908.44;5022584;28;20505;-75
2022/05/10 00:37:12;;;;;;;6.47;4.47;;;;;;;12.40;75.36;101900.78;5017050;28;20038;-74
2022/05/10 00:39:37;;;;;;;10.35;4.97;;;;;;;12.47;75.46;101907.19;5014033;28;20117;-75
2022/05/10 00:42:11;;;;;;;9.32;4.82;;;;;;;12.45;77.11;101906.50;5016179;28;20132;-75
2022/05/10 00:45:04;;;;;;;9.70;4.32;;;;;;;12.43;77.07;101900.50;5017528;28;20025;-75
2022/05/10 00:47:49;;;;;;;9.05;5.63;;;;;;;12.35;75.58;101890.59;5002240;28;20417;-74
2022/05/10 00:50:39;;;;;;;9.60;5.30;;;;;;;12.23;79.03;101887.19;5025237;28;20477;-75
2022/05/10 00:53:13;;;;;;;8.10;4.75;;;;;;;12.21;79.08;101899.72;5016043;28;20121;-75
2022/05/10 00:55:49;;;;;;;10.85;4.63;;;;;;;12.25;76.92;101901.13;5023645;28;20026;-75
2022/05/10 00:58:44;;;;;;;14.25;5.90;;;;;;;12.26;78.51;101899.31;5012240;28;20229;-75
2022/05/10 01:01:19;;;;;;;9.68;5.80;;;;;;;12.17;80.61;101893.03;5024593;28;20059;-73
2022/05/10 01:04:11;;;;;;;15.63;6.38;;;;;;;12.05;82.51;101875.59;5024526;28;20037;-75
2022/05/10 01:06:47;;;;;;;7.53;4.68;;;;;;;12.06;82.09;101875.47;5014651;28;20045;-74
2022/05/10 01:09:26;;;;;;;9.93;5.00;;;;;;;12.06;79.24;101874.63;5021841;28;20079;-75
2022/05/10 01:12:00;;;;;;;18.15;5.97;;;;;;;12.00;82.84;101867.22;5017931;28;20041;-75
2022/05/10 01:14:29;;;;;;;8.65;5.40;;;;;;;11.91;82.74;101861.78;5018543;28;20457;-75
2022/05/10 01:16:56;;;;;;;7.53;4.68;;;;;;;11.93;80.11;101862.50;5012951;28;20048;-75
2022/05/10 01:19:22;;;;;;;11.05;6.38;;;;;;;11.93;81.14;101840.47;5008501;28;20026;-74
2022/05/10 01:22:17;;;;;;;12.52;5.72;;;;;;;11.92;82.99;101850.22;5012793;28;20033;-74
2022/05/10 01:24:51;;;;;;;18.83;7.03;;;;;;;11.88;83.82;101851.44;5024475;28;20029;-75
2022/05/10 01:27:22;;;;;;;7.70;5.00;;;;;;;11.90;81.94;101849.50;5013975;28;20034;-75
2022/05/10 01:30:22;;;;;;;9.95;6.22;;;;;;;11.96;82.17;101847.31;5015840;28;20025;-74
2022/05/10 01:36:12;;;;;;;16.85;6.65;;;;;;;11.76;84.18;101826.06;5020985;28;20032;-75
2022/05/10 01:38:57;;;;;;;9.23;5.60;;;;;;;11.72;84.18;101822.00;5028670;28;20033;-75
2022/05/10 01:41:54;;;;;;;8.23;5.55;;;;;;;11.74;83.92;101820.06;5021298;28;20107;-75
2022/05/10 01:44:19;;;;;;;16.92;7.28;;;;;;;11.76;85.09;101812.84;5020864;28;20124;-75
2022/05/10 01:46:47;;;;;;;10.13;6.00;;;;;;;11.61;84.87;101787.72;5028285;28;20100;-75
2022/05/10 01:49:22;;;;;;;13.77;6.70;;;;;;;11.74;84.84;101804.19;5026701;28;20509;-74
2022/05/10 01:51:55;;;;;;;14.63;6.57;;;;;;;11.75;85.17;101797.91;5029238;28;20525;-74
2022/05/10 01:54:39;;;;;;;14.60;6.55;;;;;;;11.78;85.33;101794.16;5016468;28;20045;-74
2022/05/10 01:57:09;;;;;;;16.17;6.40;;;;;;;11.81;84.75;101794.75;4997777;28;20081;-74
2022/05/10 01:59:34;;;;;;;14.43;6.70;;;;;;;11.82;84.74;101798.22;5027151;28;20022;-74
2022/05/10 02:02:03;;;;;;;13.18;6.35;;;;;;;11.80;84.93;101793.09;5020926;28;20377;-74
2022/05/10 02:04:33;;;;;;;13.02;6.78;;;;;;;11.80;85.06;101787.78;5015048;28;20018;-74
2022/05/10 02:07:08;;;;;;;13.13;6.10;;;;;;;11.79;85.50;101783.47;5022850;28;20087;-74
2022/05/10 02:09:41;;;;;;;16.70;7.25;;;;;;;11.81;84.12;101789.44;5029660;28;20013;-75
2022/05/10 02:12:18;;;;;;;14.77;6.00;;;;;;;11.88;84.04;101785.31;5023651;28;20434;-74
2022/05/10 02:14:49;;;;;;;13.05;5.85;;;;;;;11.85;83.76;101768.88;4994340;28;20019;-74
2022/05/10 02:17:22;;;;;;;15.45;6.80;;;;;;;11.94;83.80;101795.38;5024956;28;20478;-74
2022/05/10 02:20:13;;;;;;;14.35;6.18;;;;;;;12.00;83.40;101787.84;5029810;28;20485;-74
2022/05/10 02:22:57;;;;;;;13.50;6.40;;;;;;;12.05;83.15;101790.94;5015564;28;20037;-74
2022/05/10 02:25:33;;;;;;;13.02;6.30;;;;;;;11.99;83.09;101786.19;5028444;28;20025;-74
2022/05/10 02:28:12;;;;;;;10.07;6.07;;;;;;;12.06;82.66;101793.47;5027601;28;20043;-74
2022/05/10 02:30:38;;;;;;;14.82;5.78;;;;;;;12.09;83.25;101787.06;5026930;28;20025;-74
2022/05/10 02:33:06;;;;;;;11.95;6.07;;;;;;;12.08;82.62;101780.06;5009837;28;20474;-74
2022/05/10 02:35:58;;;;;;;12.38;5.82;;;;;;;12.14;83.16;101790.09;5024094;28;20355;-74
2022/05/10 02:38:44;;;;;;;13.20;5.20;;;;;;;12.14;82.15;101785.66;5019920;28;20025;-74
2022/05/10 02:41:17;;;;;;;13.40;5.70;;;;;;;12.08;83.27;101774.78;5018867;28;20583;-74
2022/05/10 02:43:48;;;;;;;9.13;4.90;;;;;;;12.06;82.66;101774.06;5025760;28;20026;-74
2022/05/10 02:46:14;;;;;;;9.93;5.88;;;;;;;12.00;82.24;101758.75;5022670;28;20056;-74
2022/05/10 02:48:39;;;;;;;9.43;5.72;;;;;;;12.15;83.10;101778.56;5022676;28;20465;-75
2022/05/10 02:51:05;;;;;;;13.40;5.90;;;;;;;11.98;83.32;101764.19;5025264;28;20033;-75
2022/05/10 02:53:31;;;;;;;9.07;5.72;;;;;;;12.00;83.51;101766.69;5028258;28;20521;-74
2022/05/10 02:56:02;;;;;;;10.63;5.70;;;;;;;11.96;83.81;101775.88;5027968;28;20032;-75
2022/05/10 02:58:35;;;;;;;;;;;;;;;11.97;83.96;101769.59;5018748;28;20036;-75
2022/05/10 03:01:10;;;;;;;10.65;5.15;;;;;;;11.99;84.09;101765.84;5023575;28;19916;-75
2022/05/10 03:03:36;;;;;;;9.90;5.00;;;;;;;12.06;83.78;101764.34;5009662;28;20031;-75
2022/05/10 03:06:02;;;;;;;13.77;5.25;;;;;;;12.11;83.84;101748.06;5006303;28;20038;-75
2022/05/10 03:08:27;;;;;;;12.50;5.07;;;;;;;12.11;83.30;101750.72;5020918;28;20037;-75
2022/05/10 03:10:53;;;;;;;12.30;5.15;;;;;;;12.00;83.64;101742.88;5027668;28;20370;-75
2022/05/10 03:13:19;;;;;;;8.15;4.95;;;;;;;12.06;84.47;101750.25;5018523;28;20029;-75
2022/05/10 03:15:45;;;;;;;11.25;5.53;;;;;;;12.06;83.64;101747.63;5014270;28;20034;-75
2022/05/10 03:18:10;;;;;;;11.65;5.20;;;;;;;12.06;83.77;101742.31;5026947;28;20029;-75
2022/05/10 03:20:35;;;;;;;9.13;4.70;;;;;;;12.01;84.50;101726.03;5028905;28;20036;-75
2022/05/10 03:23:01;;;;;;;9.43;5.03;;;;;;;11.95;83.86;101719.47;5012257;28;20508;-74
2022/05/10 03:25:30;;;;;;;11.98;5.47;;;;;;;11.98;83.77;101735.09;5025711;28;20038;-74
2022/05/10 03:27:58;;;;;;;8.52;5.28;;;;;;;11.98;84.66;101728.97;5027607;28;20033;-74
2022/05/10 03:30:25;;;;;;;7.95;5.18;;;;;;;11.83;84.78;101712.63;5028224;28;20031;-74
2022/05/10 03:32:51;;;;;;;10.10;5.57;;;;;;;11.87;84.56;101712.22;5026856;28;20037;-74
2022/05/10 03:35:16;;;;;;;10.70;5.32;;;;;;;11.86;85.11;101712.34;5019309;28;20494;-74
2022/05/10 03:37:42;;;;;;;9.93;4.72;;;;;;;11.77;85.19;101692.84;5030876;28;20025;-74
2022/05/10 03:40:08;;;;;;;8.73;5.60;;;;;;;11.73;85.14;101686.16;5026657;28;20112;-74
2022/05/10 03:42:34;;;;;;;7.97;5.05;;;;;;;11.90;84.85;101701.38;5014374;28;20116;-74
2022/05/10 03:44:59;;;;;;;12.98;4.97;;;;;;;11.74;85.29;101669.31;5023862;28;20041;-74
2022/05/10 03:47:26;;;;;;;14.10;5.68;;;;;;;11.78;85.38;101686.59;5028185;28;20029;-74
2022/05/10 03:49:53;;;;;;;11.98;5.82;;;;;;;11.84;85.39;101695.78;5027268;28;20206;-74
2022/05/10 03:52:19;;;;;;;10.32;4.95;;;;;;;11.90;85.25;101701.38;5032315;28;20029;-74
2022/05/10 03:54:46;;;;;;;10.15;5.43;;;;;;;11.93;85.38;101697.59;5021744;28;20032;-74
2022/05/10 03:57:11;;;;;;;11.50;6.13;;;;;;;11.97;85.71;101700.81;5026284;28;20057;-74
2022/05/10 03:59:41;;;;;;;13.00;5.85;;;;;;;11.89;84.89;101675.91;5026960;28;20030;-74
2022/05/10 04:02:08;;;;;;;12.43;4.93;;;;;;;12.01;85.10;101697.75;5026541;28;20121;-74
2022/05/10 04:04:33;;;;;;;12.35;5.63;;;;;;;12.12;85.05;101702.09;4996447;28;20441;-75
2022/05/10 04:06:59;;;;;;;10.13;5.30;;;;;;;12.17;83.94;101699.00;5025263;28;20033;-75
2022/05/10 04:09:24;;;;;;;11.57;5.05;;;;;;;12.10;84.32;101694.28;5025527;28;20025;-75
2022/05/10 04:11:49;;;;;;;13.30;5.93;;;;;;;11.98;84.88;101676.88;4992019;28;20026;-75
2022/05/10 04:14:15;;;;;;;10.90;5.07;;;;;;;12.12;84.48;101697.63;5010664;28;20084;-74
2022/05/10 04:16:40;;;;;;;13.65;5.38;;;;;;;12.16;85.00;101711.41;5021985;28;20108;-74
2022/05/10 04:19:05;;;;;;;9.07;5.07;;;;;;;12.19;85.16;101708.47;5030282;28;20094;-74
2022/05/10 04:21:31;;;;;;;11.00;5.85;;;;;;;12.04;85.01;101678.13;5024657;28;20321;-74
2022/05/10 04:23:56;;;;;;;24.15;6.50;;;;;;;12.21;85.26;101697.78;5027749;28;20064;-74
2022/05/10 04:26:21;;;;;;;15.60;6.45;;;;;;;12.20;85.03;101698.75;5022689;28;20022;-74
2022/05/10 04:28:47;;;;;;;11.05;5.97;;;;;;;12.18;84.62;101692.75;5028017;28;20120;-74
2022/05/10 04:31:13;;;;;;;8.00;5.47;;;;;;;12.30;84.24;101708.38;5026592;28;20044;-74
2022/05/10 04:33:39;;;;;;;13.80;5.72;;;;;;;12.39;84.69;101704.03;5015992;28;20060;-74
2022/05/10 04:36:05;;;;;;;15.35;6.00;;;;;;;12.40;85.15;101707.50;5011539;28;20077;-74
2022/05/10 04:38:31;;;;;;;11.73;5.25;;;;;;;12.39;85.03;101704.03;5026305;28;20060;-74
2022/05/10 04:43:41;;;;;;;12.10;6.03;;;;;;;12.48;84.51;101720.88;5015853;28;20064;-75
2022/05/10 04:46:06;;;;;;;10.43;4.70;;;;;;;12.51;84.88;101707.34;5026333;28;20100;-75
2022/05/10 04:48:33;;;;;;;11.77;5.80;;;;;;;12.54;85.32;101709.72;5014592;28;20038;-75
2022/05/10 04:50:59;;;;;;;11.93;6.10;;;;;;;12.57;84.82;101698.84;5010257;28;20029;-75
2022/05/10 04:53:25;;;;;;;13.95;4.95;;;;;;;12.60;84.82;101698.56;5009992;28;20026;-75
2022/05/10 04:55:51;;;;;;;9.13;6.07;;;;;;;12.58;83.47;101679.31;5010538;28;20029;-75
2022/05/10 04:58:16;;;;;;;14.38;6.30;;;;;;;12.70;83.22;101680.84;5007513;28;20026;-75
2022/05/10 05:00:42;;;;;;;10.68;6.35;;;;;;;12.85;83.43;101697.13;5009413;28;20041;-75
2022/05/10 05:03:08;;;;;;;15.18;6.13;;;;;;;12.88;82.49;101688.03;5008895;28;20041;-74
2022/05/10 05:05:33;;;;;;;9.25;5.75;;;;;;;12.97;82.61;101690.63;5012906;28;20026;-74
2022/05/10 05:07:58;;;;;;;9.70;5.22;;;;;;;12.93;82.40;101678.69;5021853;28;20421;-74
2022/05/10 05:10:24;;;;;;;8.32;5.32;;;;;;;13.07;82.39;101695.91;5028462;28;20041;-71
2022/05/10 05:12:50;;;;;;;13.07;5.75;;;;;;;13.05;81.58;101678.50;5017647;28;20026;-73
2022/05/10 05:15:16;;;;;;;10.48;5.63;;;;;;;13.16;81.48;101687.09;5010723;28;20038;-74
2022/05/10 05:17:42;;;;;;;15.27;6.72;;;;;;;13.20;81.29;101682.34;5011841;28;20402;-75
2022/05/10 05:20:08;;;;;;;9.07;6.07;;;;;;;13.14;82.00;101662.53;5024262;28;20025;-75
2022/05/10 05:22:33;;;;;;;12.85;6.32;;;;;;;13.20;82.09;101687.63;5012662;28;20600;-75
2022/05/10 05:24:59;;;;;;;13.32;6.25;;;;;;;13.21;82.88;101680.50;5024187;28;20124;-75
2022/05/10 05:27:24;;;;;;;14.82;7.18;;;;;;;13.20;83.33;101682.34;5021453;28;20498;-75
2022/05/10 05:29:50;;;;;;;13.25;6.80;;;;;;;13.16;83.41;101684.44;5009084;28;20036;-75
2022/05/10 05:32:18;;;;;;;8.95;6.38;;;;;;;13.15;83.22;101671.31;5008019;28;20080;-75
2022/05/10 05:34:44;;;;;;;13.90;7.05;;;;;;;13.23;83.81;101675.91;5009239;28;20069;-75
2022/05/10 05:39:53;;;;;;;17.67;6.88;;;;;;;13.16;83.81;101660.59;5015768;28;20044;-74
2022/05/10 05:42:18;;;;;;;9.18;6.30;;;;;;;13.33;83.95;101679.38;5016422;28;20030;-75
2022/05/10 05:44:45;;;;;;;12.65;6.78;;;;;;;13.42;83.88;101680.31;5020708;28;20474;-75
2022/05/10 05:47:10;;;;;;;13.55;6.68;;;;;;;13.46;83.89;101682.50;4996037;28;20087;-75
2022/05/10 05:49:36;;;;;;;13.10;6.07;;;;;;;13.53;83.99;101680.09;5017825;28;20127;-75
2022/05/10 05:52:03;;;;;;;15.32;7.65;;;;;;;13.62;83.84;101675.72;5013389;28;20159;-74
2022/05/10 05:54:28;;;;;;;10.88;6.78;;;;;;;13.67;83.37;101657.53;5013576;28;20034;-74
2022/05/10 05:57:05;;;;;;;11.18;6.60;;;;;;;13.84;82.47;101675.28;4993629;28;20126;-76
2022/05/10 05:59:31;;;;;;;21.83;7.22;;;;;;;13.87;82.54;101656.41;5027850;28;20041;-76
2022/05/10 06:01:57;;;;;;;18.85;7.00;;;;;;;13.97;81.97;101662.47;5009234;28;20022;-76
2022/05/10 06:04:23;;;;;;;13.57;6.95;;;;;;;14.14;81.46;101662.59;5008412;28;20100;-76
2022/05/10 06:06:49;;;;;;;11.68;6.28;;;;;;;14.28;81.09;101672.66;5010652;28;20105;-76
2022/05/10 06:09:14;;;;;;;12.60;6.88;;;;;;;14.40;79.93;101668.78;5005159;28;20391;-76
2022/05/10 06:11:40;;;;;;;9.95;6.45;;;;;;;14.40;79.50;101650.19;4996397;28;20048;-76
2022/05/10 06:14:06;;;;;;;11.05;6.50;;;;;;;14.65;78.80;101662.81;5004468;28;20373;-75
2022/05/10 06:16:32;;;;;;;16.02;6.93;;;;;;;14.72;77.83;101658.53;5018144;28;20030;-75
2022/05/10 06:18:57;;;;;;;14.40;7.80;;;;;;;14.84;77.61;101656.47;4999254;28;20026;-75
2022/05/10 06:21:23;;;;;;;12.55;6.93;;;;;;;15.01;76.68;101647.56;5012612;28;20038;-76
2022/05/10 06:23:48;;;;;;;13.30;6.53;;;;;;;15.15;76.48;101660.25;5024885;28;20079;-76
2022/05/10 06:26:14;;;;;;;13.57;6.68;;;;;;;15.10;76.39;101614.72;5020447;28;20062;-76
2022/05/10 06:28:39;;;;;;;13.15;6.45;;;;;;;15.35;75.34;101639.56;4998545;28;20049;-76
2022/05/10 06:31:07;;;;;;;10.50;6.63;;;;;;;15.53;74.37;101623.47;5018731;28;20034;-76
2022/05/10 06:33:32;;;;;;;11.52;6.60;;;;;;;15.88;72.44;101650.81;4991929;28;20262;-76
2022/05/10 06:35:58;;;;;;;9.50;6.57;;;;;;;16.22;71.59;101657.81;5023491;28;20034;-76
2022/05/10 06:38:29;;;;;;;11.50;6.47;;;;;;;16.65;70.26;101645.09;5024345;28;20026;-76
2022/05/10 06:41:03;;;;;;;10.70;6.28;;;;;;;17.14;68.62;101649.47;5004193;28;20518;-76
2022/05/10 06:43:29;;;;;;;10.75;6.57;;;;;;;17.54;67.20;101632.41;5014946;28;20030;-76
2022/05/10 06:45:58;;;;;;;9.68;6.05;;;;;;;17.80;66.20;101631.22;5017087;28;20025;-76
2022/05/10 06:48:24;;;;;;;11.55;6.63;;;;;;;18.06;65.50;101625.53;5018610;28;20473;-77
2022/05/10 06:50:50;;;;;;;14.68;6.32;;;;;;;18.43;65.40;101622.00;5017145;28;20112;-76
2022/05/10 06:53:15;;;;;;;16.63;6.10;;;;;;;18.75;62.87;101630.69;5023091;28;20105;-76
2022/05/10 06:55:41;;;;;;;15.25;5.75;;;;;;;18.89;62.92;101632.53;5020459;28;20021;-76
2022/05/10 06:58:08;;;;;;;10.63;5.82;;;;;;;18.93;62.77;101632.19;5003436;28;20057;-76
2022/05/10 07:00:35;;;;;;;11.57;6.38;;;;;;;19.07;61.64;101628.66;5013849;28;20037;-76
2022/05/10 07:03:13;;;;;;;11.27;6.22;;;;;;;19.04;63.07;101626.34;5015938;28;20345;-76
2022/05/10 07:05:41;;;;;;;13.30;5.55;;;;;;;19.01;61.45;101629.38;5016208;28;20052;-76
2022/05/10 07:08:06;;;;;;;14.77;5.75;;;;;;;19.07;61.11;101624.13;5012138;28;20080;-76
2022/05/10 07:10:32;;;;;;;12.02;4.82;;;;;;;19.18;61.37;101609.44;5022491;28;20041;-76
2022/05/10 07:12:58;;;;;;;9.50;4.93;;;;;;;19.51;61.16;101622.34;5014771;28;20059;-77
2022/05/10 07:15:24;;;;;;;8.23;5.82;;;;;;;19.00;60.77;101595.63;5019113;28;20113;-76
2022/05/10 07:17:50;;;;;;;12.65;5.32;;;;;;;19.28;62.27;101612.63;5012191;28;20489;-76
2022/05/10 07:20:17;;;;;;;7.80;4.95;;;;;;;19.23;62.24;101612.38;5024815;28;20029;-76
2022/05/10 07:22:44;;;;;;;9.18;4.93;;;;;;;19.46;62.12;101608.72;5023163;28;20056;-76
2022/05/10 07:25:16;;;;;;;7.88;5.00;;;;;;;19.72;61.85;101597.47;5016970;28;20326;-76
2022/05/10 07:27:42;;;;;;;14.45;5.18;;;;;;;19.83;61.40;101590.75;5021351;28;20109;-76
2022/05/10 07:30:09;;;;;;;11.27;5.05;;;;;;;20.11;60.12;101591.59;5013987;28;20112;-76
2022/05/10 07:32:35;;;;;;;8.50;4.45;;;;;;;20.26;61.87;101588.00;5037414;28;20030;-76
2022/05/10 07:35:04;;;;;;;11.38;4.68;;;;;;;20.06;59.28;101574.47;5021675;28;20084;-77
2022/05/10 07:37:30;;;;;;;7.25;4.78;;;;;;;20.17;60.20;101589.19;5008376;28;20452;-76
2022/05/10 07:39:55;;;;;;;9.20;4.90;;;;;;;19.92;59.79;101600.31;5018301;28;20084;-76
2022/05/10 07:42:21;;;;;;;6.65;4.30;;;;;;;20.31;60.22;101593.59;5021013;28;20038;-77
2022/05/10 07:44:49;;;;;;;9.05;4.53;;;;;;;20.25;59.07;101555.00;5019570;28;20429;-76
2022/05/10 07:47:14;;;;;;;9.73;4.75;;;;;;;20.62;58.56;101576.25;4999811;28;20036;-76
2022/05/10 07:49:40;;;;;;;11.77;4.07;;;;;;;20.66;57.70;101564.94;5017248;28;20804;-76
2022/05/10 07:52:05;;;;;;;7.57;4.43;;;;;;;20.77;58.77;101574.25;5018189;28;20021;-75
2022/05/10 07:54:31;;;;;;;12.32;5.60;;;;;;;21.00;57.94;101571.28;5017643;28;20108;-77
2022/05/10 07:56:56;;;;;;;30.60;6.43;;;;;;;20.80;57.84;101555.09;5019424;28;20046;-77
2022/05/10 07:59:21;;;;;;;14.02;4.72;;;;;;;20.96;57.50;101567.31;4979497;28;20038;-76
2022/05/10 08:01:47;;;;;;;11.88;4.30;;;;;;;20.89;57.52;101563.81;5035789;28;20113;-76
2022/05/10 08:04:12;;;;;;;9.73;4.35;;;;;;;20.94;57.66;101575.56;5014469;28;20033;-76
2022/05/10 08:06:38;;;;;;;8.43;3.80;;;;;;;20.95;58.74;101569.19;5003549;28;20393;-75
2022/05/10 08:16:39;;;;;;;10.68;4.60;;;;;;;21.11;57.19;101557.25;5016409;28;20041;-76
2022/05/10 08:22:26;;;;;;;8.48;3.83;;;;;;;21.26;56.49;101556.28;5017530;28;20485;-76
2022/05/10 08:24:52;;;;;;;6.70;3.65;;;;;;;21.10;57.18;101542.19;5014446;28;20121;-76
2022/05/10 08:27:17;;;;;;;6.25;3.63;;;;;;;20.90;56.60;101526.03;5021231;28;20034;-76
2022/05/10 08:29:43;;;;;;;7.70;3.15;;;;;;;21.28;57.47;101538.94;5014836;28;20113;-79
2022/05/10 08:32:08;;;;;;;8.57;3.67;;;;;;;21.09;56.83;101537.03;5015046;28;20065;-77
2022/05/10 08:34:35;;;;;;;8.38;3.42;;;;;;;21.27;57.25;101528.38;5013471;28;20076;-79
2022/05/10 08:37:04;;;;;;;10.32;3.28;;;;;;;21.21;57.11;101523.81;5014137;28;20037;-76
2022/05/10 08:39:30;;;;;;;9.00;3.75;;;;;;;21.18;57.06;101525.06;5013221;28;20037;-76
2022/05/10 08:42:00;;;;;;;11.75;3.63;;;;;;;21.20;56.39;101508.75;5014195;28;20073;-77
2022/05/10 08:44:27;;;;;;;10.70;3.15;;;;;;;21.10;57.46;101504.63;5020179;28;20400;-77
2022/05/10 08:46:58;;;;;;;10.18;4.07;;;;;;;21.26;57.11;101524.88;5022883;28;20021;-76
2022/05/10 08:49:43;;;;;;;8.25;2.90;;;;;;;21.30;56.46;101507.34;5029259;28;20109;-77
2022/05/10 08:52:12;;;;;;;7.38;3.83;;;;;;;21.27;55.93;101497.00;5014920;28;20100;-76
2022/05/10 08:54:39;;;;;;;6.10;3.00;;;;;;;21.63;55.72;101514.59;5017519;28;20022;-76
2022/05/10 08:57:41;;;;;;;9.60;3.45;;;;;;;21.76;55.74;101511.09;5017160;28;20179;-77
2022/05/10 09:00:11;;;;;;;4.88;2.95;;;;;;;21.90;55.75;101512.72;5013844;28;20037;-77
2022/05/10 09:02:40;;;;;;;9.13;2.95;;;;;;;22.07;55.16;101496.97;5025809;28;20102;-77
2022/05/10 09:05:09;;;;;;;9.45;3.03;;;;;;;21.72;54.66;101494.53;5015268;28;20044;-77
2022/05/10 09:07:59;;;;;;;9.38;2.67;;;;;;;21.68;55.85;101497.88;5025732;28;20112;-77
2022/05/10 09:10:37;;;;;;;12.77;3.65;;;;;;;21.65;56.19;101488.38;5031843;28;20037;-77
2022/05/10 09:13:10;;;;;;;11.13;3.30;;;;;;;21.67;55.49;101486.28;5016658;28;20028;-75
2022/05/10 09:15:46;;;;;;;9.77;2.55;;;;;;;21.67;54.73;101488.97;5014694;28;20021;-76
2022/05/10 09:18:28;;;;;;;16.92;3.42;;;;;;;21.73;54.44;101488.16;5030547;28;20589;-77
2022/05/10 09:21:17;;;;;;;10.93;2.72;;;;;;;21.83;54.97;101489.59;5013993;28;20119;-76
2022/05/10 09:24:20;;;;;;;10.90;3.10;;;;;;;21.83;54.79;101489.59;5030970;28;20030;-77
2022/05/10 09:26:48;;;;;;;6.55;2.67;;;;;;;21.90;54.69;101475.09;5014573;28;20029;-76
2022/05/10 09:29:44;;;;;;;9.85;2.50;;;;;;;21.73;54.30;101482.78;5018735;28;20049;-77
2022/05/10 09:35:24;;;;;;;9.02;2.92;;;;;;;21.63;55.00;101458.19;5017886;28;20059;-76
2022/05/10 09:37:59;;;;;;;12.93;2.78;;;;;;;21.78;55.56;101458.78;5014144;28;20041;-77
2022/05/10 09:40:32;;;;;;;7.85;3.28;;;;;;;21.98;55.73;101455.25;5015012;28;20032;-77
2022/05/10 09:43:23;;;;;;;10.30;2.75;;;;;;;22.41;55.04;101453.88;5012638;28;20691;-77
2022/05/10 09:46:11;;;;;;;9.90;2.80;;;;;;;22.39;54.84;101437.97;5015526;28;20033;-77
2022/05/10 09:48:38;;;;;;;5.95;3.50;;;;;;;22.73;52.67;101446.66;5014629;28;20014;-76
2022/05/10 09:51:23;;;;;;;7.28;2.75;;;;;;;22.93;53.19;101435.75;5016905;28;20040;-79
2022/05/10 09:53:50;;;;;;;6.13;2.58;;;;;;;23.32;52.48;101432.00;5019057;28;20104;-77
2022/05/10 09:56:24;;;;;;;9.40;3.47;;;;;;;23.96;50.82;101440.72;5009849;28;20033;-76
2022/05/10 09:59:00;;;;;;;7.70;3.00;;;;;;;24.11;50.15;101448.41;5017492;28;20037;-76
2022/05/10 10:01:42;;;;;;;12.27;3.55;;;;;;;24.28;49.31;101453.19;5032591;28;20022;-76
2022/05/10 10:04:21;;;;;;;13.52;3.35;;;;;;;24.55;48.53;101445.63;5017536;28;20481;-77
2022/05/10 10:07:13;;;;;;;10.50;3.15;;;;;;;24.04;48.98;101436.91;5018652;28;20026;-76
2022/05/10 10:09:41;;;;;;;21.42;3.90;;;;;;;23.71;50.40;101448.81;5018318;28;20501;-76
2022/05/10 10:12:28;;;;;;;7.15;3.28;;;;;;;22.64;51.03;101426.44;5017936;28;20109;-76
2022/05/10 10:14:55;;;;;;;8.32;3.53;;;;;;;22.52;51.18;101442.44;5018554;28;20388;-77
2022/05/10 10:17:34;;;;;;;4.25;2.70;;;;;;;22.53;52.77;101434.16;4997908;28;20362;-76
2022/05/10 10:20:06;;;;;;;6.70;2.67;;;;;;;22.68;52.75;101444.63;5014793;28;20041;-77
2022/05/10 10:22:42;;;;;;;6.82;3.40;;;;;;;22.53;52.68;101447.59;5016905;28;20443;-76
2022/05/10 10:25:18;;;;;;;14.32;3.92;;;;;;;22.22;53.83;101437.59;5008466;28;20108;-77
2022/05/10 10:28:02;;;;;;;10.73;3.47;;;;;;;22.32;54.09;101440.69;5017573;28;20554;-76
2022/05/10 10:30:33;;;;;;;7.50;3.80;;;;;;;22.22;53.67;101429.53;5017754;28;20034;-77
2022/05/10 10:33:07;;;;;;;14.00;3.92;;;;;;;22.34;54.12;101432.38;5017921;28;20552;-77
2022/05/10 10:35:53;;;;;;;9.43;4.00;;;;;;;22.38;52.82;101414.78;5019021;28;20068;-77
2022/05/10 10:38:28;;;;;;;13.63;3.67;;;;;;;22.85;53.37;101428.78;5019309;28;20037;-76
2022/05/10 10:41:03;;;;;;;15.07;3.90;;;;;;;22.89;53.15;101432.69;5019100;28;20513;-77
2022/05/10 10:43:49;;;;;;;10.00;3.22;;;;;;;22.95;53.40;101423.75;5017906;28;20033;-76
2022/05/10 10:46:25;;;;;;;7.70;3.40;;;;;;;22.95;53.05;101442.59;5013009;28;20297;-75
2022/05/10 10:48:56;;;;;;;7.03;3.67;;;;;;;22.74;54.07;101430.31;5017470;28;20116;-76
2022/05/10 10:51:28;;;;;;;13.02;4.00;;;;;;;22.63;53.83;101414.03;5011453;28;20505;-77
2022/05/10 10:53:54;;;;;;;14.77;4.25;;;;;;;23.00;53.13;101431.22;5013742;28;20538;-76
2022/05/10 10:56:26;;;;;;;9.02;4.35;;;;;;;22.88;52.72;101425.66;5013230;28;20076;-76
2022/05/10 10:59:19;;;;;;;8.00;4.57;;;;;;;22.95;52.71;101433.69;5009260;28;20100;-76
2022/05/10 11:02:03;;;;;;;8.45;4.38;;;;;;;23.02;53.48;101430.97;5025713;28;20037;-77
2022/05/10 11:04:55;;;;;;;9.15;4.25;;;;;;;23.17;53.19;101423.44;5010131;28;20025;-76
2022/05/10 11:07:48;;;;;;;8.63;4.35;;;;;;;23.00;53.59;101429.34;5034482;28;20072;-76
2022/05/10 11:10:46;;;;;;;9.30;4.68;;;;;;;22.87;54.18;101428.59;5015880;28;20032;-76
2022/05/10 11:13:21;;;;;;;11.55;6.20;;;;;;;22.61;54.53;101421.50;5018167;28;20473;-76
2022/05/10 11:16:12;;;;;;;9.25;4.63;;;;;;;22.46;55.34;101419.91;5032506;28;20410;-76
2022/05/10 11:19:07;;;;;;;15.27;4.88;;;;;;;22.64;56.14;101423.75;5015486;28;20025;-76
2022/05/10 11:21:44;;;;;;;9.27;4.05;;;;;;;22.55;58.54;101418.63;5018602;28;20060;-76
2022/05/10 11:24:28;;;;;;;11.00;4.55;;;;;;;22.51;56.92;101417.41;5015732;28;20061;-76
2022/05/10 11:27:28;;;;;;;6.28;3.83;;;;;;;22.62;56.99;101396.25;5016673;28;20122;-77
2022/05/10 11:30:13;;;;;;;9.40;4.07;;;;;;;22.80;57.28;101409.78;5006629;28;20243;-78
2022/05/10 11:32:57;;;;;;;9.85;4.80;;;;;;;22.90;56.81;101403.91;4999242;28;20032;-77
2022/05/10 11:35:52;;;;;;;5.05;4.20;;;;;;;22.71;57.35;101405.69;5010458;28;20029;-78
2022/05/10 11:38:45;;;;;;;9.85;4.43;;;;;;;22.67;57.79;101372.19;5004076;28;20034;-76
2022/05/10 11:41:32;;;;;;;9.05;4.13;;;;;;;22.94;55.02;101397.88;5023128;28;20147;-77
2022/05/10 11:44:15;;;;;;;7.57;2.42;;;;;;;22.48;53.01;101390.13;5010037;28;20038;-76
2022/05/10 11:47:05;;;;;;;5.82;2.42;;;;;;;22.57;51.87;101395.03;5002322;28;20022;-77
2022/05/10 11:50:06;;;;;;;4.53;2.78;;;;;;;22.98;52.67;101391.00;5006771;28;20470;-76
2022/05/10 11:53:03;;;;;;;7.88;2.80;;;;;;;23.40;51.24;101393.16;5010704;28;20026;-77
2022/05/10 11:55:54;;;;;;;8.98;2.95;;;;;;;23.54;51.17;101401.94;5006161;28;20490;-76
2022/05/10 11:58:20;;;;;;;6.10;2.80;;;;;;;23.92;50.90;101392.84;5003853;28;20048;-76
2022/05/10 12:00:50;;;;;;;10.05;3.15;;;;;;;24.02;50.76;101399.38;5009449;28;20038;-76
2022/05/10 12:03:44;;;;;;;9.60;3.10;;;;;;;23.91;50.73;101391.19;5002993;28;20113;-76
2022/05/10 12:06:24;;;;;;;7.18;3.22;;;;;;;23.63;51.15;101389.84;5005183;28;20584;-76